This is the latest recevied weather packets stored in our database for station/object N3DXC. If no packets are shown the sender has not sent any weather packets the latest 1 day(s).
| Time | Temp. | Humidity | Pressure | Rain* | Wind** | Luminosity | Snow |
|---|---|---|---|---|---|---|---|
| 1778013289 | 20° C | 53% | 1008.8 hPa | 0 mm | 4.92 m/s, 281° | - | - |
| 1778012989 | 20° C | 52% | 1008.8 hPa | 0 mm | 4.92 m/s, 288° | - | - |
| 1778012689 | 20.56° C | 51% | 1008.9 hPa | 0 mm | 4.02 m/s, 270° | - | - |
| 1778012390 | 20° C | 52% | 1008.9 hPa | 0 mm | 2.68 m/s, 258° | - | - |
| 1778012089 | 20.56° C | 51% | 1008.9 hPa | 0 mm | 5.36 m/s, 281° | - | - |
| 1778011789 | 20.56° C | 51% | 1008.9 hPa | 0 mm | 4.02 m/s, 284° | - | - |
| 1778011492 | 20° C | 52% | 1008.9 hPa | 0 mm | 5.81 m/s, 284° | - | - |
| 1778011191 | 20.56° C | 50% | 1008.8 hPa | 0 mm | 4.47 m/s, 264° | - | - |
| 1778010889 | 20.56° C | 51% | 1008.8 hPa | 0 mm | 4.92 m/s, 250° | - | - |
| 1778010590 | 20.56° C | 50% | 1008.8 hPa | 0 mm | 3.58 m/s, 281° | - | - |
| 1778010289 | 20.56° C | 49% | 1008.8 hPa | 0.25 mm | 8.94 m/s, 258° | - | - |
| 1778010001 | 20.56° C | 51% | 1008.9 hPa | 0.25 mm | 5.36 m/s, 260° | - | - |
| 1778009691 | 20.56° C | 50% | 1008.8 hPa | 0.25 mm | 5.36 m/s, 260° | - | - |
| 1778009389 | 20.56° C | 50% | 1008.8 hPa | 0.25 mm | 5.36 m/s, 268° | - | - |
| 1778009090 | 20.56° C | 51% | 1008.8 hPa | 0.25 mm | 3.13 m/s, 264° | - | - |
| 1778008790 | 20.56° C | 52% | 1008.7 hPa | 0.25 mm | 6.26 m/s, 234° | - | - |
| 1778008490 | 20.56° C | 57% | 1008.8 hPa | 0.25 mm | 6.26 m/s, 237° | - | - |
| 1778008190 | 20.56° C | 59% | 1008.9 hPa | 0.25 mm | 4.92 m/s, 251° | - | - |
| 1778007890 | 20° C | 63% | 1008.9 hPa | 0.25 mm | 4.47 m/s, 247° | - | - |
| 1778007591 | 19.44° C | 65% | 1009 hPa | 0.25 mm | 5.36 m/s, 250° | - | - |
| 1778007290 | 18.89° C | 64% | 1009 hPa | 0.25 mm | 4.92 m/s, 237° | - | - |
| 1778006989 | 18.33° C | 61% | 1009.1 hPa | 0.25 mm | 5.81 m/s, 246° | - | - |
| 1778006691 | 18.89° C | 56% | 1009.2 hPa | 0 mm | 8.49 m/s, 213° | - | - |
| 1778006390 | 20.56° C | 48% | 1009 hPa | 0 mm | 5.81 m/s, 226° | - | - |
| 1778006090 | 20.56° C | 47% | 1009 hPa | 0 mm | 3.58 m/s, 270° | - | - |
* Rain latest hour (hover to see other rain measurements)
** Current wind speed in m/s (hover to see current wind gust speed)